KTIX/TIX METAR and TAF weather

Enter ICAO airport designator
Station Type Date Time Source
KTIX METAR 2019/02/16 01:46 UTC NOAA

KTIX 160146Z 15002KT 7SM CLR 16/15 A2994


Station Type Date Time Source
KTIX Decoded METAR 2019/02/16 01:46 UTC NOAA

Titusville, FL, United States (KTIX) 28-31N 080-48W
Feb 15, 2019 - 08:46 PM EST / 2019.02.16 0146 UTC
Wind: from the SSE (150 degrees) at 2 MPH (2 KT):0
Visibility: 7 mile(s):0
Sky conditions: clear
Temperature: 60 F (16 C)
Dew Point: 59 F (15 C)
Relative Humidity: 93%
Pressure (altimeter): 29.94 in. Hg (1013 hPa)
ob: KTIX 160146Z 15002KT 7SM CLR 16/15 A2994
cycle: 2

Station Type Date Time Source
KTIX TAF 2019/02/15 18:22 UTC NOAA

TAF KTIX 151720Z 1518/1618 08007KT P6SM FEW045 BKN250
FM160100 23003KT P6SM BKN250
FM161400 24007KT P6SM FEW040 SCT250


Example: see airport list